Valley, Nebraska
Current Conditions -  °F | °C
As of 9:55 AM on Sunday 23 Nov 2014 (Local Time) from KFET Reporting Station
Clear Clear  
Wind Chill: 40°   Ceiling: Unl
Heat Index: 47°   Visibility: 10mi
Dew Point: 38°   Wind: 20mph
Humidity: 71%   Direction: 330°NNW
Pressure: 29.51"   Gusts: 26mph
Location:  41.31°N, 96.35°W
Report Text: KFET 231555Z AUTO 33017G23KT 10SM CLR 09/04 A2951 RMK AO2 T00850036
Loading
Personal Weather Stations






























Interactive Weather Map New forecast layout! Learn more

10-Day Weather Forecast

Advertisements
Track Severe Weather on mobile